Time;durP1;ratioP1;P1;durP2;ratioP2;P2;SDS_P1;SDS_P2;PMS_P1;PMS_P2;Temp;Humidity;BMP_temperature;BMP_pressure;BME280_temperature;BME280_humidity;BME280_pressure;Samples;Min_cycle;Max_cycle;Signal;HPM_P1;HPM_P2
2022/09/07 00:01:09;;;;;;;4.37;3.97;;;19.30;99.90;;;;;;5066079;28;20454;-70
2022/09/07 00:03:36;;;;;;;5.77;3.63;;;19.30;99.90;;;;;;5061997;28;20564;-70
2022/09/07 00:06:07;;;;;;;3.83;3.53;;;19.30;99.90;;;;;;5062349;28;20456;-70
2022/09/07 00:08:34;;;;;;;4.23;3.80;;;19.30;99.90;;;;;;5070765;28;20490;-70
2022/09/07 00:11:04;;;;;;;6.10;3.90;;;19.20;99.90;;;;;;5058945;28;20490;-71
2022/09/07 00:13:34;;;;;;;4.00;3.70;;;19.20;99.90;;;;;;5055235;28;20474;-71
2022/09/07 00:16:05;;;;;;;3.43;3.13;;;19.20;99.90;;;;;;5065443;28;20516;-71
2022/09/07 00:18:34;;;;;;;4.03;3.43;;;19.20;99.90;;;;;;5063165;28;20462;-70
2022/09/07 00:21:03;;;;;;;5.77;3.40;;;19.20;99.90;;;;;;5058409;28;20467;-70
2022/09/07 00:23:31;;;;;;;4.20;3.43;;;19.20;99.90;;;;;;5066389;28;20482;-70
2022/09/07 00:26:02;;;;;;;3.93;2.93;;;19.20;99.90;;;;;;5070228;28;20481;-70
2022/09/07 00:28:30;;;;;;;3.80;3.40;;;19.20;99.90;;;;;;5060803;28;20553;-70
2022/09/07 00:30:57;;;;;;;4.70;3.20;;;19.20;99.90;;;;;;5069090;28;20451;-71
2022/09/07 00:33:24;;;;;;;4.20;3.80;;;19.20;99.90;;;;;;5059632;28;20473;-71
2022/09/07 00:35:54;;;;;;;3.33;2.97;;;19.20;99.90;;;;;;5054742;28;21081;-70
2022/09/07 00:38:21;;;;;;;4.57;3.57;;;19.20;99.90;;;;;;5067950;28;20511;-70
2022/09/07 00:40:48;;;;;;;3.80;3.00;;;19.20;99.90;;;;;;5071249;28;20451;-71
2022/09/07 00:43:28;;;;;;;3.97;3.13;;;19.20;99.90;;;;;;5057717;28;20557;-70
2022/09/07 00:45:55;;;;;;;4.40;3.53;;;19.30;99.90;;;;;;5070806;28;20588;-70
2022/09/07 00:48:26;;;;;;;4.73;3.17;;;19.30;99.90;;;;;;5065108;28;20451;-70
2022/09/07 00:51:00;;;;;;;4.00;3.30;;;19.30;99.90;;;;;;5067056;28;20479;-70
2022/09/07 00:53:31;;;;;;;3.47;3.17;;;19.30;99.90;;;;;;5056148;28;20978;-70
2022/09/07 00:56:00;;;;;;;6.67;3.30;;;19.40;99.90;;;;;;5064969;28;20504;-70
2022/09/07 00:58:27;;;;;;;4.30;3.30;;;19.40;99.90;;;;;;5065184;28;20495;-70
2022/09/07 01:00:55;;;;;;;3.90;3.57;;;19.40;99.90;;;;;;5062080;28;20451;-71
2022/09/07 01:03:29;;;;;;;7.60;3.53;;;19.40;99.90;;;;;;5055640;28;20471;-71
2022/09/07 01:06:04;;;;;;;4.20;3.80;;;19.40;99.90;;;;;;5058546;28;20493;-71
2022/09/07 01:08:31;;;;;;;3.80;3.30;;;19.40;99.90;;;;;;5064420;28;20458;-71
2022/09/07 01:11:00;;;;;;;3.83;3.40;;;19.40;99.90;;;;;;5067584;28;20454;-71
2022/09/07 01:13:27;;;;;;;3.60;3.10;;;19.40;99.90;;;;;;5069863;28;20508;-70
2022/09/07 01:16:01;;;;;;;3.20;2.90;;;19.40;99.90;;;;;;5053039;28;20814;-70
2022/09/07 01:18:37;;;;;;;4.23;2.70;;;19.50;99.90;;;;;;5053068;28;20453;-70
2022/09/07 01:21:24;;;;;;;3.90;3.03;;;19.50;99.90;;;;;;5061691;28;20460;-70
2022/09/07 01:24:36;;;;;;;3.73;2.80;;;19.40;99.90;;;;;;5069926;28;20886;-71
2022/09/07 01:27:36;;;;;;;3.40;3.10;;;19.50;99.90;;;;;;5062154;28;20590;-70
2022/09/07 01:30:05;;;;;;;3.80;3.00;;;19.40;99.90;;;;;;5058874;28;20555;-71
2022/09/07 01:32:48;;;;;;;3.30;3.00;;;19.40;99.90;;;;;;5065070;28;20450;-70
2022/09/07 01:35:22;;;;;;;3.00;2.70;;;19.40;99.90;;;;;;5053460;28;20566;-71
2022/09/07 01:37:55;;;;;;;6.10;3.23;;;19.50;99.90;;;;;;5057963;28;20478;-71
2022/09/07 01:40:30;;;;;;;4.13;2.30;;;19.50;99.90;;;;;;5063288;28;20466;-70
2022/09/07 01:43:03;;;;;;;3.90;2.67;;;19.50;99.90;;;;;;5058892;28;20469;-71
2022/09/07 01:45:36;;;;;;;3.33;2.80;;;19.50;99.90;;;;;;5051803;28;20493;-71
2022/09/07 01:48:06;;;;;;;4.17;2.80;;;19.50;99.90;;;;;;5067725;28;20446;-71
2022/09/07 01:50:40;;;;;;;3.37;2.83;;;19.60;99.90;;;;;;5054739;28;20502;-70
2022/09/07 01:53:14;;;;;;;3.17;2.30;;;19.60;99.90;;;;;;5052326;28;21298;-70
2022/09/07 01:55:45;;;;;;;3.70;2.60;;;19.60;99.90;;;;;;5058444;28;20593;-71
2022/09/07 01:58:20;;;;;;;2.60;2.20;;;19.70;99.90;;;;;;5063376;28;20834;-71
2022/09/07 02:00:50;;;;;;;3.20;2.83;;;19.70;99.90;;;;;;5057618;28;20677;-70
2022/09/07 02:03:21;;;;;;;2.87;2.67;;;19.70;99.90;;;;;;5052742;28;20528;-71
2022/09/07 02:05:57;;;;;;;3.40;2.53;;;19.70;99.90;;;;;;5058052;28;20916;-70
2022/09/07 02:08:29;;;;;;;3.83;2.83;;;19.70;99.90;;;;;;5055628;28;20475;-71
2022/09/07 02:11:02;;;;;;;2.47;2.13;;;19.70;99.90;;;;;;5055282;28;20460;-70
2022/09/07 02:13:35;;;;;;;2.80;2.43;;;19.70;99.90;;;;;;5065265;28;20603;-70
2022/09/07 02:16:06;;;;;;;3.50;2.30;;;19.70;99.90;;;;;;5059113;28;20555;-70
2022/09/07 02:18:38;;;;;;;4.13;2.60;;;19.80;99.90;;;;;;5053887;28;20464;-70
2022/09/07 02:21:10;;;;;;;4.57;2.93;;;19.80;99.90;;;;;;5062531;28;20982;-70
2022/09/07 02:23:40;;;;;;;2.77;2.57;;;19.80;99.90;;;;;;5069129;28;20463;-70
2022/09/07 02:26:13;;;;;;;4.40;2.40;;;19.80;99.90;;;;;;5068486;28;20494;-70
2022/09/07 02:28:42;;;;;;;2.90;2.60;;;19.80;99.90;;;;;;5059228;28;20454;-70
2022/09/07 02:31:09;;;;;;;3.40;3.13;;;19.70;99.90;;;;;;5066834;28;20478;-70
2022/09/07 02:33:36;;;;;;;3.77;2.67;;;19.70;99.90;;;;;;5050945;28;21059;-70
2022/09/07 02:36:05;;;;;;;2.50;2.30;;;19.70;99.90;;;;;;5051064;28;20455;-70
2022/09/07 02:38:33;;;;;;;3.47;2.80;;;19.70;99.90;;;;;;5061417;28;20453;-71
2022/09/07 02:41:02;;;;;;;3.03;2.73;;;19.70;99.90;;;;;;5069797;28;20450;-70
2022/09/07 02:43:30;;;;;;;3.10;2.80;;;19.70;99.90;;;;;;5070891;28;20474;-70
2022/09/07 02:46:14;;;;;;;2.90;2.60;;;19.70;99.90;;;;;;5070195;28;20600;-70
2022/09/07 02:48:50;;;;;;;4.77;2.83;;;19.70;99.90;;;;;;5062827;28;20455;-71
2022/09/07 02:51:28;;;;;;;3.80;2.50;;;19.80;99.90;;;;;;5069176;28;20790;-70
2022/09/07 02:54:15;;;;;;;2.97;2.67;;;19.80;99.90;;;;;;5057974;28;20473;-71
2022/09/07 02:56:55;;;;;;;3.80;2.70;;;19.90;99.90;;;;;;5065727;28;20493;-71
2022/09/07 02:59:39;;;;;;;5.37;3.17;;;19.90;99.90;;;;;;5055944;28;20453;-71
2022/09/07 03:02:13;;;;;;;3.40;2.47;;;20.00;99.90;;;;;;5067447;28;20491;-70
2022/09/07 03:04:46;;;;;;;3.10;2.80;;;20.00;99.90;;;;;;5055749;28;20465;-71
2022/09/07 03:07:17;;;;;;;3.43;2.93;;;20.10;99.90;;;;;;5055692;28;20470;-70
2022/09/07 03:09:48;;;;;;;3.87;2.70;;;20.10;99.90;;;;;;5062761;28;20471;-71
2022/09/07 03:12:15;;;;;;;3.30;2.50;;;20.10;99.90;;;;;;5065308;28;20454;-71
2022/09/07 03:14:44;;;;;;;4.10;2.83;;;20.10;99.90;;;;;;5063584;28;20475;-70
2022/09/07 03:17:13;;;;;;;5.97;3.17;;;20.10;99.90;;;;;;5066036;28;20500;-70
2022/09/07 03:19:41;;;;;;;4.53;3.47;;;20.10;99.90;;;;;;5064843;28;20505;-71
2022/09/07 03:22:08;;;;;;;3.80;3.23;;;20.00;99.90;;;;;;5066593;28;20829;-70
2022/09/07 03:24:35;;;;;;;6.30;3.30;;;20.00;99.90;;;;;;5069509;28;21072;-70
2022/09/07 03:27:02;;;;;;;4.20;3.23;;;20.00;99.90;;;;;;5056089;28;20566;-70
2022/09/07 03:29:30;;;;;;;3.60;3.00;;;20.00;99.90;;;;;;5069644;28;20911;-71
2022/09/07 03:31:57;;;;;;;3.50;3.20;;;20.00;99.90;;;;;;5062497;28;20938;-70
2022/09/07 03:34:25;;;;;;;3.20;2.80;;;20.00;99.90;;;;;;5064235;28;20582;-71
2022/09/07 03:36:52;;;;;;;3.80;3.13;;;19.90;99.90;;;;;;5071480;28;20458;-71
2022/09/07 03:39:22;;;;;;;3.17;2.87;;;19.90;99.90;;;;;;5064425;28;20834;-71
2022/09/07 03:41:49;;;;;;;3.10;2.80;;;19.80;99.90;;;;;;5067805;28;20545;-71
2022/09/07 03:44:16;;;;;;;4.30;3.43;;;19.80;99.90;;;;;;5069463;28;20475;-71
2022/09/07 03:46:44;;;;;;;4.13;3.10;;;19.80;99.90;;;;;;5061991;28;20491;-71
2022/09/07 03:49:11;;;;;;;4.60;3.93;;;19.80;99.90;;;;;;5059854;28;20937;-71
2022/09/07 03:51:39;;;;;;;3.90;3.60;;;19.80;99.90;;;;;;5070391;28;20724;-71
2022/09/07 03:54:07;;;;;;;4.10;3.70;;;19.70;99.90;;;;;;5073490;28;21201;-71
2022/09/07 03:56:34;;;;;;;4.27;3.53;;;19.60;99.90;;;;;;5070491;28;20821;-71
2022/09/07 03:59:01;;;;;;;3.90;3.17;;;19.60;99.90;;;;;;5068696;28;20535;-71
2022/09/07 04:01:28;;;;;;;3.57;3.30;;;19.50;99.90;;;;;;5055144;28;20496;-71
2022/09/07 04:03:57;;;;;;;5.20;3.73;;;19.40;99.90;;;;;;5070998;28;20470;-71
2022/09/07 04:06:25;;;;;;;4.30;3.20;;;19.20;99.90;;;;;;5070112;28;20514;-71
2022/09/07 04:08:55;;;;;;;3.67;3.37;;;19.00;99.90;;;;;;5069005;28;20459;-71
2022/09/07 04:11:23;;;;;;;3.90;3.50;;;19.10;99.90;;;;;;5063877;28;20547;-71
2022/09/07 04:13:50;;;;;;;4.03;3.43;;;19.00;99.90;;;;;;5058171;28;20993;-65
2022/09/07 04:16:19;;;;;;;3.30;3.10;;;19.10;99.90;;;;;;5064132;28;20559;-65
2022/09/07 04:18:48;;;;;;;4.00;3.60;;;19.10;99.90;;;;;;5059724;28;20949;-65
2022/09/07 04:21:15;;;;;;;3.70;3.33;;;19.10;99.90;;;;;;5054282;28;20455;-66
2022/09/07 04:23:43;;;;;;;4.53;4.13;;;19.10;99.90;;;;;;5062977;28;20466;-65
2022/09/07 04:26:16;;;;;;;4.00;3.37;;;19.10;99.90;;;;;;5060014;28;20593;-65
2022/09/07 04:28:44;;;;;;;6.20;3.70;;;19.10;99.90;;;;;;5064875;28;20451;-66
2022/09/07 04:31:11;;;;;;;4.53;4.13;;;19.00;99.90;;;;;;5066191;28;20885;-65
2022/09/07 04:33:39;;;;;;;7.90;3.83;;;18.80;99.90;;;;;;5072641;28;20485;-65
2022/09/07 04:36:06;;;;;;;6.20;4.27;;;18.80;99.90;;;;;;5062285;28;21009;-65
2022/09/07 04:38:34;;;;;;;4.03;3.50;;;18.80;99.90;;;;;;5063686;28;20457;-65
2022/09/07 04:41:05;;;;;;;4.10;3.70;;;18.80;99.90;;;;;;5055729;28;20454;-65
2022/09/07 04:43:34;;;;;;;4.40;3.97;;;18.80;99.90;;;;;;5062240;28;20548;-65
2022/09/07 04:46:02;;;;;;;3.83;3.43;;;18.80;99.90;;;;;;5052348;28;21060;-66
2022/09/07 04:48:29;;;;;;;5.47;3.90;;;18.80;99.90;;;;;;5053481;28;20517;-66
2022/09/07 04:51:03;;;;;;;6.00;4.17;;;18.80;99.90;;;;;;5053495;28;20463;-67
2022/09/07 04:53:31;;;;;;;4.23;3.83;;;18.80;99.90;;;;;;5062872;28;20482;-66
2022/09/07 04:55:58;;;;;;;4.70;3.90;;;18.70;99.90;;;;;;5057391;28;20532;-66
2022/09/07 04:58:26;;;;;;;3.83;3.53;;;18.70;99.90;;;;;;5072167;28;20824;-65
2022/09/07 05:00:55;;;;;;;4.07;3.70;;;18.70;99.90;;;;;;5063420;28;20529;-67
2022/09/07 05:03:22;;;;;;;3.83;3.40;;;18.70;99.90;;;;;;5061115;28;20485;-66
2022/09/07 05:05:49;;;;;;;4.40;3.47;;;18.60;99.90;;;;;;5058418;28;20487;-65
2022/09/07 05:08:16;;;;;;;4.23;3.83;;;18.70;99.90;;;;;;5068942;28;20457;-77
2022/09/07 05:10:51;;;;;;;4.90;4.43;;;18.70;99.90;;;;;;5065047;28;20456;-67
2022/09/07 05:13:18;;;;;;;3.47;3.17;;;18.70;99.90;;;;;;5066251;28;20992;-66
2022/09/07 05:15:45;;;;;;;6.50;4.23;;;18.70;99.90;;;;;;5056911;28;20455;-66
2022/09/07 05:18:13;;;;;;;6.90;3.80;;;18.60;99.90;;;;;;5061055;28;20514;-66
2022/09/07 05:20:41;;;;;;;5.87;4.27;;;18.50;99.90;;;;;;5065217;28;20466;-66
2022/09/07 05:23:08;;;;;;;4.67;4.00;;;18.40;99.90;;;;;;5067491;28;20466;-67
2022/09/07 05:25:42;;;;;;;5.33;4.13;;;18.30;99.90;;;;;;5060457;28;20462;-66
2022/09/07 05:28:09;;;;;;;5.07;4.17;;;18.30;99.90;;;;;;5054947;28;20516;-68
2022/09/07 05:30:36;;;;;;;5.40;4.90;;;18.30;99.90;;;;;;5062795;28;20943;-66
2022/09/07 05:33:03;;;;;;;6.03;4.57;;;18.40;99.90;;;;;;5067722;28;20550;-66
2022/09/07 05:35:31;;;;;;;5.27;4.87;;;18.40;99.90;;;;;;5065459;28;20461;-66
2022/09/07 05:37:59;;;;;;;6.43;4.67;;;18.40;99.90;;;;;;5064876;28;20453;-66
2022/09/07 05:40:26;;;;;;;5.63;5.00;;;18.30;99.90;;;;;;5066736;28;20454;-66
2022/09/07 05:42:53;;;;;;;11.03;5.43;;;18.40;99.90;;;;;;5071361;28;20505;-66
2022/09/07 05:45:20;;;;;;;8.27;5.40;;;18.40;99.90;;;;;;5053336;28;20497;-66
2022/09/07 05:47:49;;;;;;;6.50;4.67;;;18.30;99.90;;;;;;5067820;28;20609;-66
2022/09/07 05:50:17;;;;;;;5.50;5.00;;;18.60;99.90;;;;;;5062371;28;20843;-66
2022/09/07 05:52:46;;;;;;;7.40;5.30;;;18.60;99.90;;;;;;5061446;28;20467;-67
2022/09/07 05:55:13;;;;;;;6.87;5.83;;;18.70;99.90;;;;;;5068582;28;20446;-66
2022/09/07 05:57:40;;;;;;;5.80;5.30;;;18.80;99.90;;;;;;5055372;28;20455;-66
2022/09/07 06:00:09;;;;;;;5.90;5.30;;;18.90;99.90;;;;;;5063409;28;20507;-66
2022/09/07 06:02:36;;;;;;;9.63;6.00;;;19.00;99.90;;;;;;5068291;28;20477;-76
2022/09/07 06:05:05;;;;;;;6.03;5.43;;;19.10;99.90;;;;;;5060801;28;20482;-67
2022/09/07 06:07:32;;;;;;;6.20;5.43;;;19.20;99.90;;;;;;5064044;28;20491;-66
2022/09/07 06:10:00;;;;;;;7.83;6.40;;;19.40;99.90;;;;;;5060487;28;20466;-67
2022/09/07 06:12:27;;;;;;;5.77;5.27;;;19.40;99.90;;;;;;5050223;28;21380;-68
2022/09/07 06:14:54;;;;;;;7.43;5.30;;;19.60;99.90;;;;;;5046378;28;20488;-68
2022/09/07 06:17:22;;;;;;;5.93;5.33;;;19.60;99.90;;;;;;5064628;28;20447;-67
2022/09/07 06:19:49;;;;;;;5.33;4.87;;;19.80;99.90;;;;;;5055173;28;20541;-68
2022/09/07 06:22:16;;;;;;;5.27;4.77;;;19.90;99.90;;;;;;5065920;28;20869;-68
2022/09/07 06:24:43;;;;;;;7.70;4.87;;;20.10;99.90;;;;;;5055383;28;20455;-67
2022/09/07 06:27:11;;;;;;;7.00;4.93;;;20.30;99.90;;;;;;5069206;28;21019;-68
2022/09/07 06:29:38;;;;;;;5.30;4.80;;;20.50;99.90;;;;;;5062224;28;20903;-68
2022/09/07 06:32:06;;;;;;;5.80;4.60;;;20.80;99.90;;;;;;5067711;28;20449;-68
2022/09/07 06:34:33;;;;;;;5.60;4.67;;;21.10;99.90;;;;;;5059163;28;22598;-68
2022/09/07 06:37:00;;;;;;;5.30;4.27;;;21.60;99.90;;;;;;5047712;28;20458;-68
2022/09/07 06:39:27;;;;;;;5.77;4.70;;;21.70;99.90;;;;;;5063982;28;20460;-68
2022/09/07 06:41:54;;;;;;;6.80;4.93;;;21.90;99.90;;;;;;5052487;28;20477;-73
2022/09/07 06:44:24;;;;;;;4.53;3.97;;;21.90;99.90;;;;;;5048200;28;20458;-74
2022/09/07 06:46:51;;;;;;;5.10;4.33;;;22.00;99.90;;;;;;5054790;28;20490;-74
2022/09/07 06:49:18;;;;;;;4.17;3.87;;;22.10;99.90;;;;;;5059747;28;20861;-73
2022/09/07 06:51:45;;;;;;;5.73;3.93;;;22.10;99.90;;;;;;5059639;28;20538;-74
2022/09/07 06:54:12;;;;;;;6.10;4.27;;;22.10;99.90;;;;;;5058434;28;21082;-73
2022/09/07 06:56:39;;;;;;;5.57;3.70;;;22.20;99.90;;;;;;5062721;28;20500;-74
2022/09/07 06:59:06;;;;;;;4.43;3.43;;;21.90;99.90;;;;;;5063559;28;20438;-74
2022/09/07 07:01:35;;;;;;;4.23;3.77;;;21.90;99.90;;;;;;5062371;28;20454;-74
2022/09/07 07:04:02;;;;;;;3.90;3.50;;;22.20;99.90;;;;;;5052268;28;20520;-75
2022/09/07 07:06:34;;;;;;;5.97;3.50;;;22.00;99.90;;;;;;5064855;28;20509;-74
2022/09/07 07:09:01;;;;;;;4.17;3.53;;;22.00;99.90;;;;;;5058454;28;20490;-74
2022/09/07 07:11:30;;;;;;;3.83;3.47;;;22.00;99.90;;;;;;5053681;28;20459;-74
2022/09/07 07:13:57;;;;;;;3.30;3.00;;;22.00;99.90;;;;;;5058326;28;20450;-75
2022/09/07 07:16:24;;;;;;;5.40;3.20;;;22.00;99.90;;;;;;5064192;28;20456;-75
2022/09/07 07:18:56;;;;;;;4.07;3.60;;;22.00;99.90;;;;;;5057996;28;20524;-74
2022/09/07 07:21:24;;;;;;;4.37;3.90;;;22.00;99.90;;;;;;5055559;28;20487;-74
2022/09/07 07:23:53;;;;;;;7.37;3.33;;;21.90;99.90;;;;;;5059844;28;20500;-75
2022/09/07 07:26:22;;;;;;;6.13;3.50;;;22.00;99.90;;;;;;5060564;28;20541;-74
2022/09/07 07:28:51;;;;;;;5.00;3.60;;;22.40;99.90;;;;;;5048619;28;20455;-75
2022/09/07 07:31:19;;;;;;;4.60;3.33;;;23.00;99.90;;;;;;5051611;28;20783;-75
2022/09/07 07:33:47;;;;;;;3.53;3.23;;;23.50;99.90;;;;;;5059028;28;21113;-75
2022/09/07 07:36:18;;;;;;;4.07;2.90;;;23.90;99.90;;;;;;5057386;28;20473;-75
2022/09/07 07:38:47;;;;;;;5.77;3.27;;;24.30;99.90;;;;;;5047243;28;20501;-74
2022/09/07 07:41:15;;;;;;;4.23;3.23;;;24.50;99.90;;;;;;5056331;28;20523;-74
2022/09/07 07:43:42;;;;;;;4.10;3.50;;;24.60;99.90;;;;;;5056372;28;20511;-75
2022/09/07 07:46:13;;;;;;;5.10;3.13;;;24.70;99.90;;;;;;5051012;28;20946;-75
2022/09/07 07:48:40;;;;;;;6.07;3.70;;;24.90;99.90;;;;;;5049052;28;20969;-75
2022/09/07 07:51:09;;;;;;;5.60;3.10;;;25.40;99.90;;;;;;5047274;28;20466;-75
2022/09/07 07:53:39;;;;;;;5.57;3.33;;;25.60;99.90;;;;;;5053264;28;21194;-74
2022/09/07 07:56:07;;;;;;;4.90;3.50;;;25.90;99.90;;;;;;5064532;28;20584;-74
2022/09/07 07:58:36;;;;;;;3.33;2.70;;;26.20;99.90;;;;;;5047110;28;20470;-75
2022/09/07 08:01:06;;;;;;;4.97;3.50;;;26.30;99.90;;;;;;5054379;28;20450;-75
2022/09/07 08:03:35;;;;;;;3.80;2.83;;;26.60;99.90;;;;;;5062161;28;21013;-75
2022/09/07 08:06:06;;;;;;;4.50;3.20;;;26.80;99.90;;;;;;5061621;28;20465;-75
2022/09/07 08:08:35;;;;;;;3.30;2.90;;;27.00;99.90;;;;;;5066371;28;20573;-75
2022/09/07 08:11:07;;;;;;;5.13;3.73;;;27.30;99.90;;;;;;5065512;28;20541;-75
2022/09/07 08:13:34;;;;;;;3.80;2.83;;;27.60;99.90;;;;;;5060477;28;20463;-75
2022/09/07 08:16:02;;;;;;;4.13;2.40;;;28.00;99.90;;;;;;5065750;28;20459;-75
2022/09/07 08:18:29;;;;;;;3.70;2.90;;;28.30;99.90;;;;;;5049416;28;20542;-75
2022/09/07 08:21:00;;;;;;;4.00;2.30;;;28.40;99.90;;;;;;5052553;28;20467;-75
2022/09/07 08:23:28;;;;;;;5.10;2.77;;;28.50;99.90;;;;;;5051201;28;21015;-75
2022/09/07 08:25:57;;;;;;;4.47;2.63;;;28.80;99.90;;;;;;5060940;28;20563;-75
2022/09/07 08:28:26;;;;;;;4.50;2.40;;;28.80;99.90;;;;;;5062644;28;20486;-75
2022/09/07 08:30:53;;;;;;;4.70;2.93;;;29.00;99.90;;;;;;5053878;28;20454;-75
2022/09/07 08:33:20;;;;;;;5.83;2.30;;;29.00;99.90;;;;;;5053926;28;20455;-75
2022/09/07 08:35:56;;;;;;;4.20;2.27;;;29.00;99.90;;;;;;5066872;28;21134;-68
2022/09/07 08:38:23;;;;;;;7.33;2.90;;;28.90;99.90;;;;;;5065293;28;20470;-68
2022/09/07 08:40:50;;;;;;;6.60;2.67;;;29.00;99.90;;;;;;5064466;28;20504;-68
2022/09/07 08:43:29;;;;;;;4.70;2.67;;;29.40;99.90;;;;;;5056094;28;20941;-74
2022/09/07 08:46:02;;;;;;;5.83;2.73;;;29.80;99.90;;;;;;5054273;28;20462;-75
2022/09/07 08:48:33;;;;;;;4.40;2.60;;;30.20;99.90;;;;;;5062524;28;20872;-73
2022/09/07 08:51:06;;;;;;;4.30;2.40;;;30.80;99.90;;;;;;5070623;28;20493;-74
2022/09/07 08:53:37;;;;;;;3.77;2.53;;;31.30;99.90;;;;;;5053678;28;20443;-75
2022/09/07 08:56:08;;;;;;;6.30;2.47;;;31.90;99.70;;;;;;5052913;28;20471;-74
2022/09/07 08:58:42;;;;;;;5.50;2.97;;;32.40;97.80;;;;;;5065818;28;20469;-74
2022/09/07 09:01:11;;;;;;;4.73;2.40;;;32.80;96.70;;;;;;5071949;28;20576;-74
2022/09/07 09:03:40;;;;;;;4.53;2.67;;;33.10;95.70;;;;;;5073529;28;20445;-74
2022/09/07 09:06:12;;;;;;;6.60;2.50;;;33.30;94.70;;;;;;5069516;28;20537;-74
2022/09/07 09:09:00;;;;;;;4.13;2.60;;;33.20;94.20;;;;;;5066070;28;21065;-74
2022/09/07 09:11:36;;;;;;;3.83;2.03;;;33.10;94.00;;;;;;5072995;28;20466;-74
2022/09/07 09:14:11;;;;;;;5.40;3.00;;;33.00;94.50;;;;;;5073253;28;20940;-74
2022/09/07 09:16:43;;;;;;;3.57;2.30;;;33.10;93.90;;;;;;5073066;28;20477;-74
2022/09/07 09:19:28;;;;;;;3.00;2.40;;;33.10;93.60;;;;;;5073629;28;20525;-74
2022/09/07 09:22:07;;;;;;;4.00;2.43;;;33.30;93.60;;;;;;5064812;28;20471;-74
2022/09/07 09:24:40;;;;;;;4.00;2.73;;;33.50;93.20;;;;;;5065123;28;20448;-74
2022/09/07 09:27:07;;;;;;;3.07;2.50;;;33.70;92.70;;;;;;5069180;28;20493;-74
2022/09/07 09:29:35;;;;;;;5.20;2.90;;;33.80;92.40;;;;;;5073371;28;20442;-74
2022/09/07 09:32:38;;;;;;;3.47;2.70;;;33.80;92.40;;;;;;5072811;28;20466;-73
2022/09/07 09:35:14;;;;;;;4.43;2.47;;;33.80;91.50;;;;;;5072777;28;20538;-74
2022/09/07 09:37:42;;;;;;;4.13;2.20;;;33.90;91.20;;;;;;5072610;28;20866;-73
2022/09/07 09:40:21;;;;;;;4.63;2.30;;;34.00;91.10;;;;;;5071868;28;20545;-73
2022/09/07 09:43:00;;;;;;;3.70;2.43;;;34.20;91.00;;;;;;5052781;28;20451;-74
2022/09/07 09:45:31;;;;;;;5.80;2.80;;;34.80;90.60;;;;;;5052689;28;20772;-73
2022/09/07 09:47:59;;;;;;;4.47;2.80;;;35.00;90.10;;;;;;5064305;28;20882;-74
2022/09/07 09:50:31;;;;;;;4.43;2.50;;;35.10;88.30;;;;;;5072687;28;20481;-73
2022/09/07 09:53:00;;;;;;;3.37;2.37;;;35.20;86.60;;;;;;5072675;28;20556;-74
2022/09/07 09:55:31;;;;;;;5.33;2.33;;;35.10;86.70;;;;;;5071446;28;20446;-73
2022/09/07 09:58:01;;;;;;;5.57;2.87;;;34.80;86.70;;;;;;5068691;28;20525;-73
2022/09/07 10:00:32;;;;;;;6.50;3.03;;;34.70;86.40;;;;;;5052275;28;20554;-73
2022/09/07 10:03:05;;;;;;;3.47;2.40;;;34.50;87.00;;;;;;5052576;28;20479;-73
2022/09/07 10:05:39;;;;;;;4.60;2.20;;;34.40;87.40;;;;;;5052090;28;20847;-73
2022/09/07 10:08:16;;;;;;;4.67;3.20;;;34.40;86.50;;;;;;5069549;28;20513;-73
2022/09/07 10:10:51;;;;;;;3.60;2.53;;;34.40;85.50;;;;;;5067418;28;20568;-73
2022/09/07 10:13:21;;;;;;;5.47;2.80;;;34.20;87.10;;;;;;5052143;28;20926;-73
2022/09/07 10:15:53;;;;;;;3.33;2.60;;;34.30;87.30;;;;;;5058033;28;20456;-73
2022/09/07 10:18:27;;;;;;;5.37;3.03;;;34.70;87.20;;;;;;5063920;28;20482;-73
2022/09/07 10:21:12;;;;;;;4.23;2.30;;;34.90;85.20;;;;;;5051871;28;20512;-75
2022/09/07 10:23:40;;;;;;;6.77;2.40;;;35.20;84.00;;;;;;5056905;28;20560;-72
2022/09/07 10:26:21;;;;;;;4.67;2.43;;;35.40;83.80;;;;;;5055698;28;20471;-73
2022/09/07 10:28:48;;;;;;;3.10;2.50;;;35.40;80.70;;;;;;5051898;28;20514;-73
2022/09/07 10:31:24;;;;;;;7.17;3.03;;;35.00;81.20;;;;;;5063174;28;20998;-73
2022/09/07 10:34:00;;;;;;;4.33;2.60;;;34.80;83.20;;;;;;5064501;28;20482;-73
2022/09/07 10:36:37;;;;;;;6.40;2.80;;;35.00;82.20;;;;;;5060010;28;20455;-72
2022/09/07 10:39:12;;;;;;;5.97;2.30;;;35.10;81.30;;;;;;5051483;28;20775;-73
2022/09/07 10:41:45;;;;;;;3.70;2.47;;;35.20;80.40;;;;;;5051595;28;20469;-73
2022/09/07 10:44:30;;;;;;;4.73;2.73;;;35.00;81.30;;;;;;5051568;28;20494;-73
2022/09/07 10:47:07;;;;;;;3.07;2.77;;;35.10;80.90;;;;;;5063218;28;20837;-73
2022/09/07 10:49:42;;;;;;;4.90;2.73;;;35.00;79.60;;;;;;5065353;28;20522;-72
2022/09/07 10:52:17;;;;;;;3.37;2.30;;;34.90;80.10;;;;;;5068371;28;20458;-72
2022/09/07 10:54:52;;;;;;;4.93;2.53;;;34.60;80.80;;;;;;5060805;28;20548;-71
2022/09/07 10:57:37;;;;;;;4.30;2.47;;;34.70;82.00;;;;;;5055696;28;20975;-69
2022/09/07 11:00:09;;;;;;;3.70;2.40;;;34.90;80.80;;;;;;5052729;28;20489;-69
2022/09/07 11:03:12;;;;;;;4.80;2.10;;;35.00;80.50;;;;;;5063777;28;20496;-74
2022/09/07 11:05:59;;;;;;;5.40;2.70;;;34.70;81.40;;;;;;5066277;28;20465;-74
2022/09/07 11:08:38;;;;;;;2.47;2.27;;;34.70;81.40;;;;;;5064404;28;20494;-77
2022/09/07 11:11:12;;;;;;;2.50;2.23;;;35.30;79.70;;;;;;5064909;28;20478;-76
2022/09/07 11:13:42;;;;;;;2.60;2.17;;;35.80;77.70;;;;;;5063399;28;20454;-75
2022/09/07 11:16:14;;;;;;;3.80;2.00;;;36.10;77.10;;;;;;5070143;28;20458;-76
2022/09/07 11:18:50;;;;;;;4.80;2.03;;;36.10;73.80;;;;;;5069833;28;20451;-76
2022/09/07 11:21:21;;;;;;;4.30;2.20;;;36.30;73.60;;;;;;5067430;28;20951;-76
2022/09/07 11:23:55;;;;;;;3.83;2.50;;;36.70;73.40;;;;;;5069794;28;20533;-76
2022/09/07 11:26:29;;;;;;;3.33;2.37;;;36.60;71.70;;;;;;5066141;28;20497;-76
2022/09/07 11:29:00;;;;;;;4.10;2.20;;;36.30;72.70;;;;;;5063663;28;20487;-77
2022/09/07 11:31:32;;;;;;;2.23;1.90;;;36.00;73.90;;;;;;5050770;28;20474;-76
2022/09/07 11:34:05;;;;;;;2.30;2.00;;;35.80;73.20;;;;;;5070682;28;20826;-76
2022/09/07 11:36:36;;;;;;;5.70;2.30;;;35.50;72.70;;;;;;5051433;28;20984;-75
2022/09/07 11:39:12;;;;;;;3.27;2.50;;;35.40;73.50;;;;;;5063512;28;20546;-76
2022/09/07 11:41:44;;;;;;;2.70;2.10;;;35.20;73.20;;;;;;5063609;28;20458;-76
2022/09/07 11:44:18;;;;;;;4.37;2.43;;;35.10;73.90;;;;;;5063784;28;20996;-77
2022/09/07 11:46:47;;;;;;;4.00;2.33;;;34.80;73.70;;;;;;5059054;28;20899;-76
2022/09/07 11:49:20;;;;;;;2.83;2.23;;;34.30;73.50;;;;;;5068899;28;20496;-77
2022/09/07 11:51:51;;;;;;;4.93;2.10;;;33.40;76.00;;;;;;5062453;28;20533;-76
2022/09/07 11:54:45;;;;;;;3.73;2.23;;;32.90;76.80;;;;;;5060126;28;20469;-76
2022/09/07 11:57:31;;;;;;;3.83;2.37;;;32.80;77.50;;;;;;5047816;28;20544;-76
2022/09/07 12:00:06;;;;;;;6.07;2.17;;;32.80;77.10;;;;;;5057996;28;20477;-76
2022/09/07 12:03:04;;;;;;;2.80;2.00;;;33.10;76.50;;;;;;5057530;28;20457;-76
2022/09/07 12:06:01;;;;;;;3.73;2.10;;;33.50;75.30;;;;;;5066971;28;20454;-77
2022/09/07 12:08:48;;;;;;;4.10;2.27;;;34.10;74.60;;;;;;5016521;28;20482;-75
2022/09/07 12:11:44;;;;;;;2.60;2.07;;;34.70;72.70;;;;;;5056377;28;20597;-76
2022/09/07 12:14:23;;;;;;;3.97;2.10;;;35.00;72.80;;;;;;5058945;28;20888;-75
2022/09/07 12:17:14;;;;;;;5.63;2.03;;;35.40;72.00;;;;;;5063140;28;20945;-76
2022/09/07 12:19:43;;;;;;;2.77;2.00;;;35.60;69.40;;;;;;5055765;28;20474;-75
2022/09/07 12:22:21;;;;;;;3.43;2.10;;;35.80;68.80;;;;;;5063038;28;20458;-75
2022/09/07 12:24:51;;;;;;;3.47;1.87;;;35.70;67.80;;;;;;5060772;28;20458;-76
2022/09/07 12:27:40;;;;;;;4.63;2.30;;;35.30;67.70;;;;;;5057252;28;20455;-75
2022/09/07 12:30:50;;;;;;;2.80;1.80;;;35.00;68.10;;;;;;5048588;28;20511;-75
2022/09/07 12:33:23;;;;;;;1.87;1.33;;;35.00;67.80;;;;;;5050055;28;21383;-76
2022/09/07 12:35:50;;;;;;;2.53;1.80;;;35.30;68.40;;;;;;5048071;28;20537;-76
2022/09/07 12:39:00;;;;;;;3.00;1.70;;;35.60;66.20;;;;;;5043757;28;20461;-74
2022/09/07 12:41:51;;;;;;;2.63;1.67;;;35.80;64.90;;;;;;5047582;28;21020;-76
2022/09/07 12:44:24;;;;;;;2.90;1.90;;;36.10;64.10;;;;;;5046108;28;20473;-76
2022/09/07 12:46:57;;;;;;;3.10;1.90;;;36.10;64.30;;;;;;5045883;28;20465;-75
2022/09/07 12:50:04;;;;;;;3.90;1.57;;;36.10;63.40;;;;;;5047739;28;21000;-75
2022/09/07 12:53:07;;;;;;;2.80;2.00;;;35.90;63.30;;;;;;5044669;28;20472;-75
2022/09/07 12:55:50;;;;;;;3.70;1.60;;;35.60;63.30;;;;;;5051780;28;20493;-75
2022/09/07 12:58:31;;;;;;;1.90;1.70;;;35.30;63.70;;;;;;5045379;28;20474;-76
2022/09/07 13:01:10;;;;;;;4.00;2.20;;;35.30;63.60;;;;;;5048926;28;20969;-75
2022/09/07 13:04:14;;;;;;;2.40;1.70;;;35.20;63.80;;;;;;5046689;28;20541;-75
2022/09/07 13:06:59;;;;;;;4.47;2.00;;;34.70;64.40;;;;;;5002608;28;22704;-75
2022/09/07 13:09:32;;;;;;;2.70;2.00;;;34.50;65.30;;;;;;5066897;28;21044;-75
2022/09/07 13:12:03;;;;;;;4.20;2.00;;;34.20;65.30;;;;;;5064873;28;20474;-75
2022/09/07 13:14:35;;;;;;;3.40;1.80;;;33.70;66.00;;;;;;5052814;28;20854;-74